Terminal Aerodrome Forecast
Issued by NWS Cleveland, OH

Home | Current Version | Previous Version | Graphics & Text | Print | Product List | Glossary Off
Versions: 1 2 3 4 5 6 7 8 9 10 11 12

295
FTUS41 KCLE 241120
TAFERI
TAF
KERI 241120Z 2412/2512 18003KT P6SM SKC
     FM241600 29011KT P6SM SCT250
     FM250100 23005KT P6SM SKC=

USA.gov is the U.S. government's official web portal to all federal, state and local government web resources and services.